UAE2901 OMDB-OEMA
Flight info
| Callsign | UAE2901 |
|---|---|
| Flight time | N/A |
| Altitude | 32000 |
| Route | KUTLI4F KUTLI L519 ATUDO M318 GOLGU M550 RIBOT/N0506F280 M550 MEVDO/N0507F320 DCT DANOM DCT ASMIS DCT ELONU ELONU1G |
| Aircraft | B77W/H-SDE1E2E3FGHIJ2J3J4J5M1RWXY/LB1D1 |
Departure
| Time | N/A |
|---|---|
| Airport | Dubai International Airport (OMDB) |
Arrival
| Time | 2026-04-24 20:30 |
|---|---|
| Airport | Prince Mohammad Bin Abdulaziz Airport (OEMA) |
| Time | Latitude | Longitude | Altitude | Speed | Heading |
|---|---|---|---|---|---|
| 2026-04-24 18:54 | 22.74325 | 50.90106 | 31892 ft | 464 kts | 259° |
| 2026-04-24 18:55 | 22.72469 | 50.79846 | 31899 ft | 464 kts | 259° |
| 2026-04-24 18:56 | 22.71222 | 50.72974 | 31903 ft | 464 kts | 259° |
| 2026-04-24 18:56 | 22.69973 | 50.66107 | 31895 ft | 464 kts | 259° |
| 2026-04-24 18:57 | 22.68725 | 50.59258 | 31892 ft | 464 kts | 259° |
| 2026-04-24 18:57 | 22.67477 | 50.52432 | 31900 ft | 464 kts | 259° |
| 2026-04-24 18:58 | 22.66217 | 50.45562 | 31896 ft | 464 kts | 259° |
| 2026-04-24 18:58 | 22.64961 | 50.38726 | 31899 ft | 463 kts | 259° |
| 2026-04-24 18:59 | 22.63702 | 50.31889 | 31898 ft | 463 kts | 259° |
| 2026-04-24 18:59 | 22.62440 | 50.25054 | 31902 ft | 463 kts | 259° |
| 2026-04-24 19:00 | 22.61173 | 50.18208 | 31907 ft | 464 kts | 259° |
| 2026-04-24 19:00 | 22.59905 | 50.11379 | 31899 ft | 465 kts | 259° |
| 2026-04-24 19:01 | 22.58631 | 50.04528 | 31894 ft | 465 kts | 259° |
| 2026-04-24 19:01 | 22.57348 | 49.97644 | 31891 ft | 466 kts | 259° |
| 2026-04-24 19:02 | 22.56068 | 49.90793 | 31883 ft | 466 kts | 259° |
| 2026-04-24 19:02 | 22.54785 | 49.83940 | 31882 ft | 466 kts | 259° |
| 2026-04-24 19:03 | 22.53924 | 49.76971 | 31889 ft | 466 kts | 267° |
| 2026-04-24 19:03 | 22.54100 | 49.69995 | 31888 ft | 465 kts | 275° |
| 2026-04-24 19:04 | 22.54785 | 49.63068 | 31892 ft | 464 kts | 275° |
| 2026-04-24 19:04 | 22.55478 | 49.56132 | 31884 ft | 463 kts | 275° |
| 2026-04-24 19:05 | 22.56150 | 49.49174 | 31894 ft | 463 kts | 275° |
| 2026-04-24 19:05 | 22.56800 | 49.42279 | 31891 ft | 462 kts | 275° |
| 2026-04-24 19:06 | 22.57445 | 49.35367 | 31903 ft | 461 kts | 275° |
| 2026-04-24 19:06 | 22.58087 | 49.28463 | 31883 ft | 460 kts | 275° |
| 2026-04-24 19:07 | 22.58724 | 49.21580 | 31903 ft | 460 kts | 275° |
| 2026-04-24 19:07 | 22.59256 | 49.15810 | 31888 ft | 461 kts | 275° |
| 2026-04-24 19:08 | 22.59992 | 49.07786 | 31893 ft | 461 kts | 275° |
| 2026-04-24 19:08 | 22.60622 | 49.00897 | 31888 ft | 462 kts | 275° |
| 2026-04-24 19:09 | 22.61251 | 48.93965 | 31894 ft | 463 kts | 275° |
| 2026-04-24 19:09 | 22.61883 | 48.86987 | 31895 ft | 464 kts | 275° |
| 2026-04-24 19:10 | 22.62507 | 48.80050 | 31897 ft | 463 kts | 274° |
| 2026-04-24 19:10 | 22.63126 | 48.73141 | 31887 ft | 462 kts | 274° |
| 2026-04-24 19:11 | 22.63745 | 48.66204 | 31892 ft | 461 kts | 274° |
| 2026-04-24 19:11 | 22.64355 | 48.59326 | 31895 ft | 461 kts | 274° |
| 2026-04-24 19:12 | 22.64963 | 48.52430 | 31909 ft | 461 kts | 274° |
| 2026-04-24 19:12 | 22.65569 | 48.45530 | 31898 ft | 462 kts | 274° |
| 2026-04-24 19:13 | 22.66077 | 48.39724 | 31901 ft | 462 kts | 274° |
| 2026-04-24 19:13 | 22.66777 | 48.31671 | 31902 ft | 462 kts | 274° |
| 2026-04-24 19:14 | 22.67379 | 48.24718 | 31897 ft | 462 kts | 274° |
| 2026-04-24 19:14 | 22.67973 | 48.17813 | 31889 ft | 461 kts | 274° |
| 2026-04-24 19:15 | 22.68567 | 48.10888 | 31892 ft | 459 kts | 274° |
| 2026-04-24 19:15 | 22.69151 | 48.04030 | 31892 ft | 458 kts | 274° |
| 2026-04-24 19:16 | 22.70022 | 47.93746 | 31899 ft | 457 kts | 274° |
| 2026-04-24 19:16 | 22.70596 | 47.86917 | 31899 ft | 457 kts | 274° |
| 2026-04-24 19:17 | 22.71168 | 47.80080 | 31906 ft | 457 kts | 273° |
| 2026-04-24 19:17 | 22.71741 | 47.73191 | 31903 ft | 458 kts | 273° |
| 2026-04-24 19:18 | 22.72309 | 47.66336 | 31902 ft | 458 kts | 273° |
| 2026-04-24 19:18 | 22.72876 | 47.59446 | 31904 ft | 458 kts | 274° |
| 2026-04-24 19:19 | 22.73440 | 47.52570 | 31908 ft | 458 kts | 273° |
| 2026-04-24 19:19 | 22.74000 | 47.45701 | 31909 ft | 458 kts | 273° |
| 2026-04-24 19:20 | 22.74556 | 47.38850 | 31910 ft | 458 kts | 273° |
| 2026-04-24 19:20 | 22.75109 | 47.31984 | 31915 ft | 459 kts | 273° |
| 2026-04-24 19:21 | 22.75662 | 47.25093 | 31918 ft | 459 kts | 273° |
| 2026-04-24 19:21 | 22.76214 | 47.18168 | 31921 ft | 459 kts | 273° |
| 2026-04-24 19:22 | 22.76760 | 47.11294 | 31924 ft | 460 kts | 273° |
| 2026-04-24 19:22 | 22.77307 | 47.04355 | 31935 ft | 460 kts | 273° |
| 2026-04-24 19:23 | 22.77850 | 46.97447 | 31939 ft | 461 kts | 273° |
| 2026-04-24 19:23 | 22.78388 | 46.90553 | 31936 ft | 460 kts | 273° |
| 2026-04-24 19:24 | 22.78923 | 46.83657 | 31941 ft | 459 kts | 273° |
| 2026-04-24 19:24 | 22.79453 | 46.76792 | 31944 ft | 459 kts | 273° |
| 2026-04-24 19:25 | 22.79984 | 46.69873 | 31948 ft | 458 kts | 273° |
| 2026-04-24 19:25 | 22.80507 | 46.63015 | 31951 ft | 458 kts | 273° |
| 2026-04-24 19:26 | 22.81028 | 46.56149 | 31957 ft | 458 kts | 273° |
| 2026-04-24 19:26 | 22.81548 | 46.49245 | 31959 ft | 458 kts | 273° |
| 2026-04-24 19:27 | 22.82063 | 46.42375 | 31953 ft | 457 kts | 273° |
| 2026-04-24 19:27 | 22.82574 | 46.35528 | 31943 ft | 456 kts | 273° |
| 2026-04-24 19:28 | 22.83083 | 46.28658 | 31948 ft | 456 kts | 273° |
| 2026-04-24 19:28 | 22.83587 | 46.21820 | 31934 ft | 456 kts | 272° |
| 2026-04-24 19:29 | 22.84336 | 46.11572 | 31927 ft | 457 kts | 272° |
| 2026-04-24 19:30 | 22.84836 | 46.04684 | 31922 ft | 459 kts | 272° |
| 2026-04-24 19:30 | 22.85336 | 45.97759 | 31920 ft | 459 kts | 272° |
| 2026-04-24 19:31 | 22.85831 | 45.90866 | 31926 ft | 459 kts | 272° |
| 2026-04-24 19:31 | 22.86321 | 45.83997 | 31912 ft | 458 kts | 272° |
| 2026-04-24 19:32 | 22.86810 | 45.77100 | 31914 ft | 457 kts | 272° |
| 2026-04-24 19:32 | 22.87292 | 45.70250 | 31917 ft | 455 kts | 272° |
| 2026-04-24 19:33 | 22.87770 | 45.63426 | 31921 ft | 455 kts | 272° |
| 2026-04-24 19:33 | 22.88244 | 45.56605 | 31926 ft | 455 kts | 272° |
| 2026-04-24 19:34 | 22.88719 | 45.49731 | 31928 ft | 455 kts | 272° |
| 2026-04-24 19:34 | 22.89188 | 45.42899 | 31930 ft | 455 kts | 272° |
| 2026-04-24 19:35 | 22.89656 | 45.36045 | 31952 ft | 455 kts | 272° |
| 2026-04-24 19:35 | 22.90120 | 45.29212 | 31937 ft | 455 kts | 272° |
| 2026-04-24 19:36 | 22.90579 | 45.22396 | 31937 ft | 454 kts | 272° |
| 2026-04-24 19:36 | 22.91037 | 45.15559 | 31939 ft | 453 kts | 272° |
| 2026-04-24 19:37 | 22.91492 | 45.08729 | 31942 ft | 454 kts | 272° |
| 2026-04-24 19:37 | 22.91943 | 45.01901 | 31943 ft | 454 kts | 272° |
| 2026-04-24 19:38 | 22.92392 | 44.95065 | 31947 ft | 457 kts | 272° |
| 2026-04-24 19:38 | 22.92842 | 44.88179 | 31955 ft | 460 kts | 272° |
| 2026-04-24 19:39 | 22.93217 | 44.82397 | 31958 ft | 462 kts | 271° |
| 2026-04-24 19:39 | 22.93668 | 44.75413 | 31956 ft | 463 kts | 271° |
| 2026-04-24 19:40 | 22.94263 | 44.68504 | 31956 ft | 464 kts | 277° |
| 2026-04-24 19:40 | 22.95791 | 44.61702 | 31953 ft | 467 kts | 285° |
| 2026-04-24 19:41 | 22.97892 | 44.55000 | 31959 ft | 466 kts | 285° |
| 2026-04-24 19:41 | 22.99983 | 44.48331 | 31956 ft | 466 kts | 285° |
| 2026-04-24 19:42 | 23.02043 | 44.41686 | 31956 ft | 466 kts | 285° |
| 2026-04-24 19:42 | 23.04090 | 44.35031 | 31956 ft | 466 kts | 285° |
| 2026-04-24 19:43 | 23.06143 | 44.28337 | 31962 ft | 466 kts | 284° |
| 2026-04-24 19:43 | 23.08181 | 44.21681 | 31969 ft | 466 kts | 284° |
| 2026-04-24 19:44 | 23.10234 | 44.14967 | 31969 ft | 467 kts | 284° |
| 2026-04-24 19:44 | 23.12270 | 44.08297 | 31975 ft | 467 kts | 284° |
| 2026-04-24 19:45 | 23.14309 | 44.01605 | 31978 ft | 467 kts | 284° |
| 2026-04-24 19:45 | 23.16354 | 43.94885 | 31985 ft | 468 kts | 284° |
| 2026-04-24 19:46 | 23.18392 | 43.88177 | 31996 ft | 468 kts | 284° |
| 2026-04-24 19:46 | 23.20426 | 43.81468 | 32013 ft | 468 kts | 284° |
| 2026-04-24 19:47 | 23.22473 | 43.74707 | 32013 ft | 468 kts | 284° |
| 2026-04-24 19:47 | 23.24503 | 43.67991 | 32011 ft | 468 kts | 284° |
| 2026-04-24 19:48 | 23.26528 | 43.61278 | 32033 ft | 468 kts | 284° |
| 2026-04-24 19:48 | 23.29565 | 43.51188 | 32027 ft | 468 kts | 284° |
| 2026-04-24 19:49 | 23.33605 | 43.37729 | 32044 ft | 467 kts | 284° |
| 2026-04-24 19:50 | 23.37616 | 43.24319 | 32047 ft | 467 kts | 284° |
| 2026-04-24 19:51 | 23.40627 | 43.14217 | 32041 ft | 467 kts | 284° |
| 2026-04-24 19:52 | 23.43625 | 43.04137 | 32053 ft | 467 kts | 284° |
| 2026-04-24 19:52 | 23.45629 | 42.97383 | 32051 ft | 468 kts | 283° |
| 2026-04-24 19:53 | 23.47624 | 42.90648 | 32047 ft | 468 kts | 283° |
| 2026-04-24 19:54 | 23.50618 | 42.80520 | 32044 ft | 469 kts | 283° |
| 2026-04-24 19:54 | 23.52619 | 42.73735 | 32049 ft | 469 kts | 283° |
| 2026-04-24 19:55 | 23.54279 | 42.68099 | 32045 ft | 469 kts | 283° |
| 2026-04-24 19:55 | 23.56587 | 42.60248 | 32055 ft | 469 kts | 283° |
| 2026-04-24 19:56 | 23.58579 | 42.53461 | 32039 ft | 468 kts | 283° |
| 2026-04-24 19:56 | 23.60553 | 42.46719 | 32036 ft | 467 kts | 283° |
| 2026-04-24 19:57 | 23.62520 | 42.39989 | 32051 ft | 467 kts | 283° |
| 2026-04-24 19:57 | 23.64485 | 42.33260 | 32028 ft | 464 kts | 282° |
| 2026-04-24 19:58 | 23.66446 | 42.26528 | 32018 ft | 462 kts | 282° |
| 2026-04-24 19:58 | 23.68379 | 42.19880 | 32024 ft | 461 kts | 282° |
| 2026-04-24 19:59 | 23.70309 | 42.13228 | 32017 ft | 460 kts | 282° |
| 2026-04-24 19:59 | 23.72245 | 42.06544 | 32017 ft | 460 kts | 282° |
| 2026-04-24 20:00 | 23.74163 | 41.99914 | 32024 ft | 460 kts | 282° |
| 2026-04-24 20:00 | 23.76097 | 41.93212 | 32024 ft | 462 kts | 282° |
| 2026-04-24 20:01 | 23.78025 | 41.86519 | 32028 ft | 463 kts | 282° |
| 2026-04-24 20:01 | 23.79954 | 41.79815 | 32017 ft | 464 kts | 282° |
| 2026-04-24 20:02 | 23.81565 | 41.74204 | 32018 ft | 465 kts | 281° |
| 2026-04-24 20:02 | 23.83820 | 41.66341 | 32013 ft | 466 kts | 281° |
| 2026-04-24 20:03 | 23.85758 | 41.59570 | 32008 ft | 466 kts | 281° |
| 2026-04-24 20:03 | 23.87686 | 41.52822 | 32013 ft | 466 kts | 281° |
| 2026-04-24 20:04 | 23.89614 | 41.46059 | 32005 ft | 465 kts | 281° |
| 2026-04-24 20:04 | 23.91532 | 41.39320 | 32002 ft | 465 kts | 281° |
| 2026-04-24 20:05 | 23.93444 | 41.32588 | 32015 ft | 464 kts | 281° |
| 2026-04-24 20:05 | 23.95351 | 41.25866 | 31995 ft | 463 kts | 281° |
| 2026-04-24 20:06 | 23.97258 | 41.19129 | 32000 ft | 462 kts | 281° |
| 2026-04-24 20:06 | 23.99148 | 41.12435 | 32013 ft | 462 kts | 281° |
| 2026-04-24 20:07 | 24.00726 | 41.06839 | 32000 ft | 462 kts | 281° |
| 2026-04-24 20:07 | 24.02935 | 40.98993 | 31996 ft | 462 kts | 281° |
| 2026-04-24 20:08 | 24.04822 | 40.92274 | 31996 ft | 463 kts | 281° |
| 2026-04-24 20:08 | 24.06705 | 40.85558 | 32002 ft | 462 kts | 280° |
| 2026-04-24 20:09 | 24.08594 | 40.78809 | 31993 ft | 462 kts | 280° |
| 2026-04-24 20:09 | 24.10466 | 40.72111 | 31988 ft | 461 kts | 280° |
| 2026-04-24 20:10 | 24.12335 | 40.65408 | 31991 ft | 461 kts | 280° |
| 2026-04-24 20:10 | 24.14211 | 40.58664 | 31741 ft | 462 kts | 280° |
| 2026-04-24 20:10 | 24.15160 | 40.55234 | 30620 ft | 472 kts | 280° |
| 2026-04-24 20:11 | 24.16098 | 40.51850 | 29787 ft | 466 kts | 279° |
| 2026-04-24 20:11 | 24.16787 | 40.48427 | 28926 ft | 453 kts | 272° |
| 2026-04-24 20:11 | 24.17199 | 40.45025 | 28196 ft | 445 kts | 271° |
| 2026-04-24 20:11 | 24.17535 | 40.41669 | 27474 ft | 439 kts | 270° |
| 2026-04-24 20:12 | 24.17858 | 40.38386 | 26793 ft | 434 kts | 271° |
| 2026-04-24 20:12 | 24.18199 | 40.35107 | 26120 ft | 430 kts | 271° |
| 2026-04-24 20:12 | 24.18556 | 40.31868 | 25450 ft | 426 kts | 272° |
| 2026-04-24 20:12 | 24.18922 | 40.28680 | 24787 ft | 423 kts | 272° |
| 2026-04-24 20:13 | 24.19297 | 40.25483 | 24118 ft | 420 kts | 273° |
| 2026-04-24 20:13 | 24.19669 | 40.22333 | 23457 ft | 418 kts | 274° |
| 2026-04-24 20:13 | 24.20043 | 40.19176 | 22699 ft | 415 kts | 274° |
| 2026-04-24 20:13 | 24.20409 | 40.16084 | 22041 ft | 410 kts | 273° |
| 2026-04-24 20:14 | 24.20771 | 40.13035 | 21840 ft | 396 kts | 273° |
| 2026-04-24 20:14 | 24.21120 | 40.10081 | 21629 ft | 383 kts | 273° |
| 2026-04-24 20:14 | 24.21455 | 40.07224 | 21457 ft | 370 kts | 273° |
| 2026-04-24 20:14 | 24.21774 | 40.04488 | 21304 ft | 358 kts | 272° |
| 2026-04-24 20:15 | 24.22085 | 40.01815 | 21174 ft | 347 kts | 272° |
| 2026-04-24 20:15 | 24.22383 | 39.99259 | 21034 ft | 336 kts | 272° |
| 2026-04-24 20:15 | 24.22677 | 39.96737 | 20902 ft | 326 kts | 272° |
| 2026-04-24 20:15 | 24.22962 | 39.94297 | 20773 ft | 316 kts | 272° |
| 2026-04-24 20:16 | 24.23498 | 39.92007 | 20408 ft | 319 kts | 288° |
| 2026-04-24 20:16 | 24.24814 | 39.89923 | 19681 ft | 345 kts | 309° |
| 2026-04-24 20:16 | 24.26704 | 39.88326 | 19469 ft | 348 kts | 321° |
| 2026-04-24 20:16 | 24.29043 | 39.87316 | 18435 ft | 379 kts | 340° |
| 2026-04-24 20:17 | 24.31676 | 39.86795 | 17730 ft | 390 kts | 344° |
| 2026-04-24 20:17 | 24.36962 | 39.85851 | 17352 ft | 395 kts | 343° |
| 2026-04-24 20:17 | 24.39755 | 39.85285 | 16764 ft | 423 kts | 343° |
| 2026-04-24 20:18 | 24.41673 | 39.84889 | 16346 ft | 424 kts | 343° |
| 2026-04-24 20:18 | 24.45528 | 39.84088 | 15563 ft | 423 kts | 343° |
| 2026-04-24 20:18 | 24.48413 | 39.83479 | 14966 ft | 420 kts | 343° |
| 2026-04-24 20:18 | 24.51298 | 39.82856 | 14392 ft | 418 kts | 343° |
| 2026-04-24 20:19 | 24.54104 | 39.82246 | 13820 ft | 415 kts | 343° |
| 2026-04-24 20:19 | 24.56947 | 39.81634 | 13204 ft | 413 kts | 343° |
| 2026-04-24 20:19 | 24.59774 | 39.81034 | 12570 ft | 411 kts | 344° |
| 2026-04-24 20:19 | 24.62574 | 39.80442 | 11928 ft | 408 kts | 345° |
| 2026-04-24 20:20 | 24.65318 | 39.79861 | 11324 ft | 405 kts | 345° |
| 2026-04-24 20:20 | 24.68082 | 39.79276 | 10745 ft | 402 kts | 345° |
| 2026-04-24 20:20 | 24.70828 | 39.78693 | 10165 ft | 398 kts | 346° |
| 2026-04-24 20:20 | 24.73517 | 39.78120 | 9575 ft | 396 kts | 346° |
| 2026-04-24 20:21 | 24.76220 | 39.77545 | 8956 ft | 393 kts | 347° |
| 2026-04-24 20:21 | 24.78905 | 39.76975 | 8336 ft | 390 kts | 347° |
| 2026-04-24 20:21 | 24.81548 | 39.76415 | 7758 ft | 388 kts | 348° |
| 2026-04-24 20:21 | 24.84205 | 39.75847 | 7132 ft | 386 kts | 349° |
| 2026-04-24 20:22 | 24.86754 | 39.75174 | 6571 ft | 375 kts | 339° |
| 2026-04-24 20:22 | 24.88922 | 39.73653 | 6332 ft | 364 kts | 316° |
| 2026-04-24 20:22 | 24.90414 | 39.71471 | 6196 ft | 350 kts | 296° |
| 2026-04-24 20:22 | 24.91214 | 39.69032 | 6177 ft | 332 kts | 282° |
| 2026-04-24 20:23 | 24.91523 | 39.66582 | 6151 ft | 313 kts | 268° |
| 2026-04-24 20:23 | 24.91100 | 39.64363 | 6134 ft | 290 kts | 238° |
| 2026-04-24 20:23 | 24.89756 | 39.62881 | 6157 ft | 262 kts | 201° |
| 2026-04-24 20:23 | 24.88073 | 39.62607 | 6142 ft | 236 kts | 163° |
| 2026-04-24 20:24 | 24.87124 | 39.63104 | 6146 ft | 223 kts | 136° |
| 2026-04-24 20:24 | 24.85759 | 39.64743 | 6132 ft | 220 kts | 152° |
| 2026-04-24 20:24 | 24.84782 | 39.65059 | 6180 ft | 223 kts | 173° |
| 2026-04-24 20:24 | 24.83207 | 39.65163 | 6188 ft | 230 kts | 172° |
| 2026-04-24 20:25 | 24.81621 | 39.65390 | 6209 ft | 227 kts | 169° |
| 2026-04-24 20:25 | 24.80104 | 39.65641 | 6200 ft | 222 kts | 168° |
| 2026-04-24 20:25 | 24.78564 | 39.65929 | 6149 ft | 227 kts | 167° |
| 2026-04-24 20:25 | 24.76961 | 39.66225 | 5804 ft | 233 kts | 168° |
| 2026-04-24 20:26 | 24.75380 | 39.66541 | 5510 ft | 226 kts | 167° |
| 2026-04-24 20:26 | 24.73877 | 39.66858 | 5225 ft | 218 kts | 167° |
| 2026-04-24 20:26 | 24.72418 | 39.67169 | 4964 ft | 207 kts | 167° |
| 2026-04-24 20:26 | 24.71053 | 39.67460 | 4744 ft | 194 kts | 166° |
| 2026-04-24 20:27 | 24.69770 | 39.67734 | 4459 ft | 180 kts | 166° |
| 2026-04-24 20:27 | 24.68601 | 39.67983 | 4240 ft | 161 kts | 165° |
| 2026-04-24 20:27 | 24.67569 | 39.68204 | 4036 ft | 145 kts | 165° |
| 2026-04-24 20:27 | 24.66606 | 39.68411 | 3875 ft | 141 kts | 165° |
| 2026-04-24 20:28 | 24.65629 | 39.68623 | 3723 ft | 143 kts | 165° |
| 2026-04-24 20:28 | 24.64661 | 39.68829 | 3515 ft | 139 kts | 165° |
| 2026-04-24 20:28 | 24.63725 | 39.69029 | 3356 ft | 139 kts | 165° |
| 2026-04-24 20:28 | 24.62764 | 39.69234 | 3182 ft | 141 kts | 165° |
| 2026-04-24 20:29 | 24.61806 | 39.69439 | 2993 ft | 138 kts | 164° |
| 2026-04-24 20:29 | 24.60852 | 39.69642 | 2850 ft | 142 kts | 166° |
| 2026-04-24 20:29 | 24.59853 | 39.69856 | 2633 ft | 148 kts | 169° |
| 2026-04-24 20:29 | 24.58854 | 39.70077 | 2393 ft | 144 kts | 169° |
| 2026-04-24 20:30 | 24.57876 | 39.70290 | 2195 ft | 141 kts | 171° |
| 2026-04-24 20:30 | 24.56967 | 39.70480 | 2130 ft | 90 kts | 169° |
| 2026-04-24 20:30 | 24.56809 | 39.70513 | 2126 ft | 2 kts | 169° |
| 2026-04-24 20:30 | 24.56759 | 39.70524 | 2125 ft | 9 kts | 169° |
| 2026-04-24 20:31 | 24.56697 | 39.70536 | 2125 ft | 9 kts | 169° |
| 2026-04-24 20:31 | 24.56634 | 39.70549 | 2126 ft | 9 kts | 169° |
| 2026-04-24 20:31 | 24.56571 | 39.70562 | 2126 ft | 9 kts | 169° |
| 2026-04-24 20:31 | 24.56507 | 39.70575 | 2125 ft | 10 kts | 169° |
| 2026-04-24 20:32 | 24.56434 | 39.70589 | 2120 ft | 11 kts | 170° |
| 2026-04-24 20:32 | 24.56354 | 39.70604 | 2118 ft | 13 kts | 170° |
| 2026-04-24 20:32 | 24.56224 | 39.70629 | 2116 ft | 26 kts | 170° |
| 2026-04-24 20:32 | 24.55987 | 39.70684 | 2110 ft | 43 kts | 168° |
| 2026-04-24 20:33 | 24.55638 | 39.70760 | 2100 ft | 58 kts | 169° |
| 2026-04-24 20:33 | 24.55300 | 39.70890 | 2095 ft | 38 kts | 143° |
| 2026-04-24 20:33 | 24.55229 | 39.70991 | 2096 ft | 9 kts | 92° |
| 2026-04-24 20:33 | 24.55237 | 39.71130 | 2097 ft | 28 kts | 81° |
| 2026-04-24 20:34 | 24.55400 | 39.71195 | 2101 ft | 20 kts | 344° |
| 2026-04-24 20:34 | 24.55445 | 39.71207 | 2102 ft | 0 kts | 42° |
| 2026-04-24 20:34 | 24.56123 | 39.71163 | 2117 ft | 2 kts | 78° |
| 2026-04-24 20:34 | 24.56123 | 39.71164 | 2117 ft | 0 kts | 78° |